createdAt,value
2023-04-15T00:01:35.463Z,46.64
2023-04-15T00:03:37.316Z,47.25
2023-04-15T00:05:39.412Z,47.21
2023-04-15T00:07:41.021Z,47.83
2023-04-15T00:09:42.690Z,47.35
2023-04-15T00:11:44.324Z,47.73
2023-04-15T00:13:46.093Z,47.85
2023-04-15T00:15:47.763Z,48.20
2023-04-15T00:17:51.846Z,47.80
2023-04-15T00:19:53.566Z,47.76
2023-04-15T00:21:55.207Z,47.21
2023-04-15T00:23:56.907Z,47.47
2023-04-15T00:25:58.546Z,47.54
2023-04-15T00:28:00.292Z,47.08
2023-04-15T00:30:02.010Z,46.89
2023-04-15T00:32:03.742Z,47.19
2023-04-15T00:34:06.723Z,47.15
2023-04-15T00:36:08.446Z,47.55
2023-04-15T00:38:10.183Z,47.79
2023-04-15T00:40:13.090Z,48.21
2023-04-15T00:42:15.596Z,47.42
2023-04-15T00:44:17.284Z,47.85
2023-04-15T00:46:20.189Z,47.76
2023-04-15T00:48:21.887Z,48.14
2023-04-15T00:50:25.245Z,48.64
2023-04-15T00:52:26.864Z,48.81
2023-04-15T00:54:28.572Z,48.75
2023-04-15T00:56:30.745Z,48.54
2023-04-15T00:58:32.885Z,48.57
2023-04-15T01:00:34.696Z,48.29
2023-04-15T01:02:36.725Z,47.73
2023-04-15T01:04:38.642Z,47.92
2023-04-15T01:06:41.891Z,48.09
2023-04-15T01:08:43.765Z,48.69
2023-04-15T01:10:45.651Z,48.83
2023-04-15T01:12:47.286Z,49.12
2023-04-15T01:14:48.882Z,48.94
2023-04-15T01:16:50.474Z,48.96
2023-04-15T01:18:52.558Z,48.87
2023-04-15T01:20:54.338Z,49.15
2023-04-15T01:22:57.323Z,49.03
2023-04-15T01:25:09.767Z,49.05
2023-04-15T01:27:12.633Z,49.29
2023-04-15T01:29:14.260Z,50.00
2023-04-15T01:31:15.982Z,49.17
2023-04-15T01:33:17.560Z,49.35
2023-04-15T01:35:19.261Z,49.31
2023-04-15T01:37:20.862Z,49.98
2023-04-15T01:39:22.482Z,48.92
2023-04-15T01:41:25.896Z,49.22
2023-04-15T01:43:28.923Z,49.58
2023-04-15T01:45:30.493Z,49.47
2023-04-15T01:47:32.095Z,49.61
2023-04-15T01:49:34.059Z,49.53
2023-04-15T01:51:35.626Z,49.55
2023-04-15T01:53:37.353Z,50.29
2023-04-15T01:55:38.901Z,50.38
2023-04-15T01:57:40.686Z,50.34
2023-04-15T01:59:43.835Z,49.66
2023-04-15T02:01:45.494Z,50.09
2023-04-15T02:03:47.205Z,50.75
2023-04-15T02:05:48.862Z,50.91
2023-04-15T02:07:50.455Z,49.89
2023-04-15T02:09:52.036Z,50.52
2023-04-15T02:11:53.781Z,50.01
2023-04-15T02:13:55.332Z,50.26
2023-04-15T02:15:58.798Z,50.11
2023-04-15T02:18:00.405Z,49.72
2023-04-15T02:20:02.037Z,49.58
2023-04-15T02:22:03.749Z,49.93
2023-04-15T02:24:05.793Z,50.71
2023-04-15T02:26:07.477Z,49.98
2023-04-15T02:28:09.041Z,50.87
2023-04-15T02:30:11.156Z,49.75
2023-04-15T02:32:14.238Z,50.40
2023-04-15T02:34:15.888Z,50.13
2023-04-15T02:36:17.432Z,50.30
2023-04-15T02:38:19.004Z,49.84
2023-04-15T02:40:20.743Z,50.09
2023-04-15T02:42:22.317Z,49.92
2023-04-15T02:44:23.928Z,49.41
2023-04-15T02:46:25.583Z,49.46
2023-04-15T02:48:28.757Z,49.49
2023-04-15T02:50:30.321Z,49.03
2023-04-15T02:52:31.880Z,50.38
2023-04-15T02:54:33.473Z,49.96
2023-04-15T02:56:34.996Z,49.99
2023-04-15T02:58:36.525Z,50.70
2023-04-15T03:00:38.296Z,50.16
2023-04-15T03:02:40.163Z,49.49
2023-04-15T03:04:43.132Z,50.32
2023-04-15T03:06:44.675Z,49.86
2023-04-15T03:08:46.325Z,49.65
2023-04-15T03:10:47.887Z,49.62
2023-04-15T03:12:49.466Z,49.14
2023-04-15T03:14:50.977Z,49.43
2023-04-15T03:16:52.652Z,49.55
2023-04-15T03:18:54.217Z,50.18
2023-04-15T03:20:57.153Z,49.94
2023-04-15T03:22:58.705Z,49.59
2023-04-15T03:25:00.383Z,49.26
2023-04-15T03:27:01.917Z,49.13
2023-04-15T03:29:03.679Z,48.99
2023-04-15T03:31:05.569Z,48.93
2023-04-15T03:33:07.318Z,49.39
2023-04-15T03:35:09.328Z,49.93
2023-04-15T03:37:12.222Z,49.26
2023-04-15T03:39:13.923Z,49.18
2023-04-15T03:41:16.115Z,49.73
2023-04-15T03:43:17.708Z,50.15
2023-04-15T03:45:19.264Z,49.76
2023-04-15T03:47:20.927Z,49.82
2023-04-15T03:49:22.493Z,50.35
2023-04-15T03:51:24.044Z,51.02
2023-04-15T03:53:29.506Z,51.27
2023-04-15T03:55:31.029Z,51.31
2023-04-15T03:57:32.832Z,50.90
2023-04-15T03:59:34.398Z,50.07
2023-04-15T04:01:36.144Z,50.35
2023-04-15T04:03:37.972Z,51.04
2023-04-15T04:05:40.068Z,50.54
2023-04-15T04:07:41.572Z,51.77
2023-04-15T04:09:46.687Z,51.06
2023-04-15T04:11:50.005Z,51.42
2023-04-15T04:13:51.585Z,50.90
2023-04-15T04:15:53.195Z,51.28
2023-04-15T04:17:54.793Z,51.69
2023-04-15T04:19:56.389Z,51.29
2023-04-15T04:21:58.081Z,50.19
2023-04-15T04:23:59.753Z,49.84
2023-04-15T04:26:02.677Z,50.03
2023-04-15T04:28:04.553Z,50.04
2023-04-15T04:30:07.429Z,50.08
2023-04-15T04:32:09.062Z,50.38
2023-04-15T04:34:10.675Z,50.75
2023-04-15T04:36:12.319Z,50.78
2023-04-15T04:38:13.835Z,51.16
2023-04-15T04:40:15.807Z,50.96
2023-04-15T04:42:18.695Z,51.05
2023-04-15T04:44:20.398Z,50.67
2023-04-15T04:46:21.990Z,50.92
2023-04-15T04:48:24.852Z,50.92
2023-04-15T04:50:26.405Z,50.41
2023-04-15T04:52:27.947Z,50.76
2023-04-15T04:54:29.470Z,50.78
2023-04-15T04:56:31.031Z,50.90
2023-04-15T04:58:33.971Z,51.71
2023-04-15T05:00:35.566Z,51.67
2023-04-15T05:02:37.185Z,51.86
2023-04-15T05:04:38.845Z,51.83
2023-04-15T05:06:40.379Z,52.08
2023-04-15T05:08:41.977Z,51.94
2023-04-15T05:10:43.748Z,51.64
2023-04-15T05:12:45.284Z,52.15
2023-04-15T05:14:48.228Z,51.94
2023-04-15T05:16:49.854Z,52.41
2023-04-15T05:18:51.418Z,52.46
2023-04-15T05:20:52.985Z,52.01
2023-04-15T05:22:54.658Z,51.53
2023-04-15T05:24:56.220Z,52.14
2023-04-15T05:26:57.905Z,52.00
2023-04-15T05:28:59.607Z,51.95
2023-04-15T05:31:02.995Z,51.86
2023-04-15T05:33:04.816Z,52.17
2023-04-15T05:35:07.366Z,52.71
2023-04-15T05:37:08.883Z,52.90
2023-04-15T05:39:10.524Z,52.74
2023-04-15T05:41:12.820Z,53.21
2023-04-15T05:43:14.481Z,53.13
2023-04-15T05:45:16.081Z,52.84
2023-04-15T05:47:19.120Z,52.94
2023-04-15T05:49:20.715Z,52.84
2023-04-15T05:51:22.363Z,53.26
2023-04-15T05:53:24.074Z,53.27
2023-04-15T05:55:25.687Z,52.97
2023-04-15T05:57:27.373Z,53.36
2023-04-15T05:59:28.930Z,53.16
2023-04-15T06:01:30.563Z,53.11
2023-04-15T06:03:33.640Z,53.46
2023-04-15T06:05:35.328Z,53.08
2023-04-15T06:07:36.878Z,53.38
2023-04-15T06:09:39.811Z,53.26
2023-04-15T06:11:41.536Z,53.38
2023-04-15T06:13:43.449Z,53.49
2023-04-15T06:15:44.960Z,53.23
2023-04-15T06:17:46.688Z,53.69
2023-04-15T06:19:49.711Z,53.29
2023-04-15T06:21:51.333Z,53.23
2023-04-15T06:23:53.371Z,52.64
2023-04-15T06:25:54.951Z,52.89
2023-04-15T06:27:56.511Z,52.97
2023-04-15T06:29:58.190Z,53.62
2023-04-15T06:31:59.776Z,53.19
2023-04-15T06:34:01.411Z,53.54
2023-04-15T06:36:04.363Z,52.99
2023-04-15T06:38:05.990Z,53.27
2023-04-15T06:40:09.130Z,52.31
2023-04-15T06:42:11.354Z,52.20
2023-04-15T06:44:13.195Z,52.39
2023-04-15T06:46:14.780Z,51.71
2023-04-15T06:48:16.462Z,51.78
2023-04-15T06:50:18.259Z,51.22
2023-04-15T06:52:21.202Z,51.16
2023-04-15T06:54:22.779Z,51.42
2023-04-15T06:56:24.449Z,51.38
2023-04-15T06:58:26.009Z,50.84
2023-04-15T07:00:27.829Z,50.80
2023-04-15T07:02:29.697Z,51.70
2023-04-15T07:04:31.479Z,51.60
2023-04-15T07:06:33.272Z,51.18
2023-04-15T07:08:36.364Z,51.35
2023-04-15T07:10:38.008Z,51.92
2023-04-15T07:12:39.659Z,51.92
2023-04-15T07:14:41.222Z,51.79
2023-04-15T07:16:42.849Z,51.86
2023-04-15T07:18:44.472Z,51.37
2023-04-15T07:20:46.119Z,52.35
2023-04-15T07:22:47.805Z,52.59
2023-04-15T07:24:50.890Z,52.93
2023-04-15T07:26:53.501Z,53.47
2023-04-15T07:28:55.063Z,53.32
2023-04-15T07:30:56.713Z,52.40
2023-04-15T07:32:58.542Z,51.91
2023-04-15T07:35:00.204Z,52.41
2023-04-15T07:37:01.803Z,52.27
2023-04-15T07:39:03.884Z,52.07
2023-04-15T07:41:07.280Z,51.42
2023-04-15T07:43:08.931Z,51.39
2023-04-15T07:45:11.512Z,52.41
2023-04-15T07:47:13.065Z,52.24
2023-04-15T07:49:14.655Z,51.63
2023-04-15T07:51:16.312Z,52.57
2023-04-15T07:53:17.967Z,51.63
2023-04-15T07:55:19.581Z,50.91
2023-04-15T07:57:22.672Z,51.08
2023-04-15T07:59:24.418Z,50.88
2023-04-15T08:01:25.972Z,50.85
2023-04-15T08:03:27.825Z,50.11
2023-04-15T08:05:29.551Z,51.49
2023-04-15T08:07:31.382Z,51.43
2023-04-15T08:09:32.960Z,50.11
2023-04-15T08:11:37.658Z,50.70
2023-04-15T08:13:40.586Z,50.30
2023-04-15T08:15:42.188Z,49.95
2023-04-15T08:17:43.830Z,50.41
2023-04-15T08:19:45.440Z,49.98
2023-04-15T08:21:47.055Z,50.24
2023-04-15T08:23:50.302Z,49.79
2023-04-15T08:25:51.845Z,49.80
2023-04-15T08:27:55.725Z,49.85
2023-04-15T08:29:58.642Z,48.94
2023-04-15T08:32:00.782Z,48.59
2023-04-15T08:34:02.469Z,48.63
2023-04-15T08:36:04.551Z,48.52
2023-04-15T08:38:06.148Z,48.65
2023-04-15T08:40:08.890Z,48.60
2023-04-15T08:42:16.231Z,48.63
2023-04-15T08:44:18.417Z,47.82
2023-04-15T08:46:21.737Z,47.50
2023-04-15T08:48:24.178Z,48.97
2023-04-15T08:50:28.979Z,48.52
2023-04-15T08:52:31.061Z,46.92
2023-04-15T08:54:34.396Z,47.21
2023-04-15T08:56:37.145Z,47.13
2023-04-15T08:58:38.926Z,47.29
2023-04-15T09:00:40.706Z,47.17
2023-04-15T09:02:44.059Z,46.96
2023-04-15T09:04:45.739Z,46.50
2023-04-15T09:06:47.307Z,46.39
2023-04-15T09:08:49.505Z,44.84
2023-04-15T09:10:51.087Z,46.32
2023-04-15T09:12:55.647Z,45.80
2023-04-15T09:14:57.439Z,45.12
2023-04-15T09:17:00.560Z,45.50
2023-04-15T09:19:20.814Z,45.36
2023-04-15T09:21:22.350Z,45.05
2023-04-15T09:23:24.024Z,44.97
2023-04-15T09:25:27.419Z,44.87
2023-04-15T09:27:29.048Z,45.05
2023-04-15T09:29:30.653Z,44.29
2023-04-15T09:31:32.389Z,44.49
2023-04-15T09:33:34.566Z,45.62
2023-04-15T09:35:37.595Z,46.43
2023-04-15T09:37:39.183Z,45.29
2023-04-15T09:39:47.855Z,44.98
2023-04-15T09:42:04.788Z,45.21
2023-04-15T09:44:06.643Z,45.44
2023-04-15T09:46:08.517Z,46.06
2023-04-15T09:48:18.771Z,45.31
2023-04-15T09:50:21.017Z,48.68
2023-04-15T09:52:24.056Z,48.17
2023-04-15T09:54:25.627Z,46.04
2023-04-15T09:56:34.341Z,45.61
2023-04-15T09:58:36.240Z,48.59
2023-04-15T10:00:38.100Z,45.48
2023-04-15T10:02:41.654Z,44.51
2023-04-15T10:04:44.639Z,49.54
2023-04-15T10:06:46.144Z,48.85
2023-04-15T10:08:49.432Z,47.70
2023-04-15T10:10:51.592Z,49.73
2023-04-15T10:12:55.133Z,45.34
2023-04-15T10:14:59.348Z,45.03
2023-04-15T10:17:02.506Z,45.48
2023-04-15T10:19:06.028Z,43.17
2023-04-15T10:21:09.357Z,42.46
2023-04-15T10:23:13.368Z,41.67
2023-04-15T10:25:16.964Z,43.99
2023-04-15T10:27:20.347Z,44.90
2023-04-15T10:29:23.199Z,42.59
2023-04-15T10:31:28.740Z,42.43
2023-04-15T10:33:30.750Z,40.58
2023-04-15T10:35:33.327Z,39.77
2023-04-15T10:37:36.470Z,39.66
2023-04-15T10:39:42.644Z,38.93
2023-04-15T10:41:45.625Z,38.44
2023-04-15T10:43:52.105Z,38.46
2023-04-15T10:45:53.648Z,37.33
2023-04-15T10:47:56.362Z,36.31
2023-04-15T10:49:59.236Z,36.25
2023-04-15T10:52:01.789Z,35.65
2023-04-15T10:54:08.727Z,35.31
2023-04-15T10:56:10.314Z,36.56
2023-04-15T10:58:13.185Z,35.75
2023-04-15T11:00:17.016Z,35.21
2023-04-15T11:02:18.843Z,36.52
2023-04-15T11:04:52.287Z,35.59
2023-04-15T11:07:05.701Z,36.42
2023-04-15T11:09:07.429Z,36.72
2023-04-15T11:11:08.956Z,36.67
2023-04-15T11:13:18.039Z,35.17
2023-04-15T11:15:28.715Z,36.10
2023-04-15T11:17:30.462Z,36.47
2023-04-15T11:19:38.506Z,35.88
2023-04-15T11:21:40.145Z,34.96
2023-04-15T11:23:43.351Z,36.25
2023-04-15T11:25:45.400Z,35.84
2023-04-15T11:27:46.940Z,36.11
2023-04-15T11:29:49.891Z,36.47
2023-04-15T11:31:51.524Z,36.49
2023-04-15T11:33:58.192Z,36.37
2023-04-15T11:35:59.901Z,36.44
2023-04-15T11:38:03.599Z,37.04
2023-04-15T11:40:07.114Z,37.10
2023-04-15T11:42:16.932Z,36.75
2023-04-15T11:44:18.880Z,36.41
2023-04-15T11:46:28.652Z,36.74
2023-04-15T11:48:32.052Z,36.71
2023-04-15T11:50:40.483Z,36.92
2023-04-15T11:52:42.246Z,38.57
2023-04-15T11:54:43.847Z,36.70
2023-04-15T11:56:50.899Z,36.32
2023-04-15T11:58:53.940Z,35.83
2023-04-15T12:00:58.566Z,36.70
2023-04-15T12:03:14.450Z,36.49
2023-04-15T12:05:16.400Z,37.16
2023-04-15T12:07:18.057Z,35.67
2023-04-15T12:09:21.367Z,35.74
2023-04-15T12:11:29.697Z,37.06
2023-04-15T12:13:31.311Z,37.07
2023-04-15T12:15:32.963Z,37.24
2023-04-15T12:17:51.458Z,36.85
2023-04-15T12:19:57.456Z,37.77
2023-04-15T12:22:01.430Z,37.25
2023-04-15T12:24:05.342Z,37.17
2023-04-15T12:26:07.150Z,37.23
2023-04-15T12:28:11.276Z,36.75
2023-04-15T12:30:13.322Z,37.31
2023-04-15T12:32:16.288Z,38.86
2023-04-15T12:34:18.614Z,38.18
2023-04-15T12:36:21.591Z,38.53
2023-04-15T12:38:23.216Z,38.38
2023-04-15T12:40:24.821Z,37.77
2023-04-15T12:42:26.344Z,35.92
2023-04-15T12:44:28.639Z,35.90
2023-04-15T12:46:30.286Z,35.70
2023-04-15T12:48:31.975Z,35.85
2023-04-15T12:50:33.557Z,34.99
2023-04-15T12:52:36.557Z,33.65
2023-04-15T12:54:39.070Z,33.70
2023-04-15T12:56:40.608Z,32.67
2023-04-15T12:58:42.370Z,33.48
2023-04-15T13:00:44.147Z,33.83
2023-04-15T13:02:45.812Z,33.77
2023-04-15T13:04:47.496Z,38.18
2023-04-15T13:06:49.288Z,32.90
2023-04-15T13:08:58.183Z,33.09
2023-04-15T13:11:00.509Z,33.95
2023-04-15T13:13:02.116Z,32.58
2023-04-15T13:15:05.604Z,32.77
2023-04-15T13:17:07.394Z,33.04
2023-04-15T13:19:08.952Z,34.82
2023-04-15T13:21:10.588Z,35.88
2023-04-15T13:23:12.218Z,38.59
2023-04-15T13:25:15.169Z,35.10
2023-04-15T13:27:16.836Z,33.89
2023-04-15T13:29:18.452Z,34.41
2023-04-15T13:31:19.995Z,34.81
2023-04-15T13:33:21.654Z,34.64
2023-04-15T13:35:23.218Z,36.69
2023-04-15T13:37:26.803Z,36.30
2023-04-15T13:39:28.397Z,36.83
2023-04-15T13:41:31.318Z,37.91
2023-04-15T13:43:32.823Z,38.10
2023-04-15T13:45:34.501Z,38.77
2023-04-15T13:47:36.399Z,39.39
2023-04-15T13:49:37.922Z,40.75
2023-04-15T13:51:39.552Z,40.99
2023-04-15T13:53:41.176Z,42.04
2023-04-15T13:55:42.897Z,43.07
2023-04-15T13:57:46.148Z,41.88
2023-04-15T13:59:48.267Z,40.84
2023-04-15T14:01:50.117Z,41.53
2023-04-15T14:03:51.870Z,41.75
2023-04-15T14:05:53.539Z,42.10
2023-04-15T14:07:55.112Z,41.57
2023-04-15T14:09:56.868Z,44.16
2023-04-15T14:11:58.446Z,42.66
2023-04-15T14:14:01.398Z,42.23
2023-04-15T14:16:03.240Z,42.97
2023-04-15T14:18:04.839Z,46.79
2023-04-15T14:20:08.326Z,43.95
2023-04-15T14:22:09.887Z,44.58
2023-04-15T14:24:11.474Z,48.81
2023-04-15T14:26:13.055Z,45.02
2023-04-15T14:28:14.857Z,45.07
2023-04-15T14:30:17.859Z,46.00
2023-04-15T14:32:19.497Z,45.52
2023-04-15T14:34:21.033Z,46.39
2023-04-15T14:36:22.780Z,48.01
2023-04-15T14:38:24.324Z,48.71
2023-04-15T14:40:25.950Z,47.90
2023-04-15T14:42:27.626Z,48.49
2023-04-15T14:44:29.188Z,48.86
2023-04-15T14:46:32.137Z,47.52
2023-04-15T14:48:33.904Z,48.57
2023-04-15T14:50:35.543Z,47.84
2023-04-15T14:52:37.214Z,47.71
2023-04-15T14:54:38.832Z,47.87
2023-04-15T14:56:40.404Z,48.23
2023-04-15T14:58:41.988Z,48.69
2023-04-15T15:00:43.884Z,49.34
2023-04-15T15:02:46.994Z,48.72
2023-04-15T15:04:48.803Z,48.79
2023-04-15T15:06:50.534Z,49.09
2023-04-15T15:08:52.105Z,49.28
2023-04-15T15:10:53.658Z,50.29
2023-04-15T15:12:55.212Z,52.25
2023-04-15T15:14:56.818Z,49.42
2023-04-15T15:16:58.588Z,49.38
2023-04-15T15:19:01.558Z,50.70
2023-04-15T15:21:03.156Z,52.50
2023-04-15T15:23:04.738Z,54.52
2023-04-15T15:25:06.676Z,54.11
2023-04-15T15:27:08.367Z,54.66
2023-04-15T15:29:09.966Z,56.10
2023-04-15T15:31:11.788Z,55.59
2023-04-15T15:33:13.458Z,55.68
2023-04-15T15:35:16.396Z,54.84
2023-04-15T15:37:18.081Z,55.74
2023-04-15T15:39:19.618Z,56.22
2023-04-15T15:41:21.070Z,56.30
2023-04-15T15:43:22.638Z,57.44
2023-04-15T15:45:24.264Z,56.60
2023-04-15T15:47:26.095Z,56.38
2023-04-15T15:49:28.302Z,56.44
2023-04-15T15:51:31.178Z,55.96
2023-04-15T15:53:37.073Z,56.64
2023-04-15T15:55:38.965Z,56.38
2023-04-15T15:57:40.512Z,57.37
2023-04-15T15:59:42.080Z,57.35
2023-04-15T16:01:44.196Z,55.94
2023-04-15T16:03:45.834Z,56.55
2023-04-15T16:05:47.514Z,55.91
2023-04-15T16:07:50.578Z,56.37
2023-04-15T16:09:53.065Z,57.13
2023-04-15T16:11:54.693Z,57.17
2023-04-15T16:13:56.346Z,56.31
2023-04-15T16:15:57.907Z,55.81
2023-04-15T16:17:59.588Z,56.04
2023-04-15T16:20:01.546Z,55.55
2023-04-15T16:22:03.220Z,55.55
2023-04-15T16:24:06.836Z,56.24
2023-04-15T16:26:08.447Z,56.51
2023-04-15T16:28:22.656Z,56.13
2023-04-15T16:30:27.872Z,56.05
2023-04-15T16:32:29.551Z,56.30
2023-04-15T16:34:31.177Z,55.85
2023-04-15T16:36:34.318Z,57.63
2023-04-15T16:38:35.926Z,56.93
2023-04-15T16:40:38.947Z,57.14
2023-04-15T16:42:40.569Z,57.93
2023-04-15T16:44:42.259Z,58.25
2023-04-15T16:46:43.860Z,57.78
2023-04-15T16:48:45.490Z,58.10
2023-04-15T16:50:47.595Z,57.40
2023-04-15T16:52:49.214Z,58.29
2023-04-15T16:54:50.732Z,58.04
2023-04-15T16:56:56.602Z,58.14
2023-04-15T16:58:58.214Z,57.71
2023-04-15T17:00:59.923Z,58.83
2023-04-15T17:03:01.948Z,58.39
2023-04-15T17:05:05.300Z,58.67
2023-04-15T17:07:06.876Z,59.02
2023-04-15T17:09:08.542Z,59.47
2023-04-15T17:11:10.713Z,58.54
2023-04-15T17:13:13.677Z,59.48
2023-04-15T17:15:15.324Z,59.04
2023-04-15T17:17:16.982Z,59.72
2023-04-15T17:19:18.553Z,59.10
2023-04-15T17:21:20.170Z,59.57
2023-04-15T17:23:21.804Z,59.33
2023-04-15T17:25:23.770Z,59.03
2023-04-15T17:27:25.390Z,59.03
2023-04-15T17:29:28.334Z,60.02
2023-04-15T17:31:30.369Z,59.51
2023-04-15T17:33:59.833Z,60.21
2023-04-15T17:35:53.489Z,60.27
2023-04-15T17:37:55.059Z,60.38
2023-04-15T17:39:56.682Z,60.37
2023-04-15T17:41:58.274Z,60.03
2023-04-15T17:43:59.797Z,60.74
2023-04-15T17:46:02.772Z,60.77
2023-04-15T17:48:04.475Z,61.37
2023-04-15T17:50:07.579Z,61.26
2023-04-15T17:52:09.181Z,61.48
2023-04-15T17:54:10.738Z,61.05
2023-04-15T17:56:12.334Z,61.51
2023-04-15T17:58:13.994Z,61.78
2023-04-15T18:00:16.686Z,61.06
2023-04-15T18:02:19.668Z,60.99
2023-04-15T18:04:22.766Z,60.94
2023-04-15T18:06:26.207Z,61.29
2023-04-15T18:08:27.962Z,60.87
2023-04-15T18:10:29.571Z,60.71
2023-04-15T18:12:31.119Z,61.33
2023-04-15T18:14:34.943Z,61.21
2023-04-15T18:16:36.918Z,61.65
2023-04-15T18:18:39.803Z,61.85
2023-04-15T18:20:41.329Z,61.67
2023-04-15T18:22:43.528Z,62.01
2023-04-15T18:24:45.070Z,62.31
2023-04-15T18:26:48.876Z,62.27
2023-04-15T18:28:50.836Z,62.21
2023-04-15T18:30:52.503Z,62.04
2023-04-15T18:32:54.105Z,62.05
2023-04-15T18:34:57.036Z,62.30
2023-04-15T18:36:58.709Z,62.66
2023-04-15T18:39:00.302Z,62.65
2023-04-15T18:41:01.992Z,62.98
2023-04-15T18:43:03.608Z,62.98
2023-04-15T18:45:06.037Z,63.31
2023-04-15T18:47:07.763Z,63.15
2023-04-15T18:49:09.908Z,63.18
2023-04-15T18:51:12.852Z,63.12
2023-04-15T18:53:14.641Z,63.52
2023-04-15T18:55:18.489Z,63.66
2023-04-15T18:57:30.844Z,63.52
2023-04-15T18:59:34.594Z,63.59
2023-04-15T19:01:36.278Z,63.42
2023-04-15T19:03:37.881Z,63.56
2023-04-15T19:05:39.535Z,63.68
2023-04-15T19:07:42.583Z,63.26
2023-04-15T19:09:44.306Z,63.51
2023-04-15T19:11:45.885Z,63.78
2023-04-15T19:13:47.427Z,63.88
2023-04-15T19:15:48.962Z,63.75
2023-04-15T19:17:50.874Z,64.06
2023-04-15T19:19:52.377Z,63.81
2023-04-15T19:21:53.990Z,63.86
2023-04-15T19:23:57.607Z,64.06
2023-04-15T19:25:59.215Z,63.46
2023-04-15T19:28:01.036Z,63.93
2023-04-15T19:30:02.680Z,64.05
2023-04-15T19:32:04.586Z,63.66
2023-04-15T19:34:06.159Z,64.35
2023-04-15T19:36:07.843Z,64.04
2023-04-15T19:38:09.390Z,64.44
2023-04-15T19:40:12.775Z,64.35
2023-04-15T19:42:14.381Z,64.16
2023-04-15T19:44:16.100Z,64.31
2023-04-15T19:46:17.954Z,63.70
2023-04-15T19:48:19.848Z,64.15
2023-04-15T19:50:21.398Z,64.17
2023-04-15T19:52:22.982Z,64.40
2023-04-15T19:54:24.738Z,64.27
2023-04-15T19:56:27.712Z,64.54
2023-04-15T19:58:29.352Z,64.44
2023-04-15T20:00:31.161Z,64.70
2023-04-15T20:02:32.890Z,64.80
2023-04-15T20:04:34.885Z,64.52
2023-04-15T20:06:36.561Z,63.93
2023-04-15T20:08:38.285Z,64.26
2023-04-15T20:10:39.839Z,63.94
2023-04-15T20:12:50.466Z,65.18
2023-04-15T20:14:54.550Z,64.31
2023-04-15T20:16:56.179Z,63.91
2023-04-15T20:18:57.793Z,64.23
2023-04-15T20:20:59.438Z,63.98
2023-04-15T20:23:01.052Z,64.16
2023-04-15T20:25:03.474Z,63.90
2023-04-15T20:27:05.042Z,64.22
2023-04-15T20:29:08.280Z,64.14
2023-04-15T20:31:10.054Z,64.15
2023-04-15T20:33:11.763Z,64.55
2023-04-15T20:35:13.349Z,64.35
2023-04-15T20:37:15.013Z,64.40
2023-04-15T20:39:16.575Z,64.12
2023-04-15T20:41:20.027Z,64.42
2023-04-15T20:43:21.590Z,64.38
2023-04-15T20:45:24.475Z,63.97
2023-04-15T20:47:26.146Z,63.78
2023-04-15T20:49:27.855Z,64.06
2023-04-15T20:51:29.407Z,64.03
2023-04-15T20:53:30.972Z,64.26
2023-04-15T20:55:32.544Z,64.14
2023-04-15T20:57:34.080Z,64.14
2023-04-15T20:59:35.680Z,64.38
2023-04-15T21:01:38.650Z,64.29
2023-04-15T21:03:40.399Z,64.30
2023-04-15T21:05:42.081Z,64.15
2023-04-15T21:07:43.667Z,64.07
2023-04-15T21:09:45.251Z,64.43
2023-04-15T21:12:00.457Z,65.18
2023-04-15T21:14:02.971Z,64.72
2023-04-15T21:16:04.987Z,64.53
2023-04-15T21:18:07.921Z,64.38
2023-04-15T21:20:10.700Z,64.75
2023-04-15T21:22:12.273Z,64.70
2023-04-15T21:24:13.896Z,64.42
2023-04-15T21:26:15.505Z,64.29
2023-04-15T21:28:17.109Z,64.15
2023-04-15T21:30:18.732Z,64.47
2023-04-15T21:32:20.381Z,64.05
2023-04-15T21:34:23.377Z,63.92
2023-04-15T21:36:24.976Z,63.51
2023-04-15T21:38:26.608Z,63.59
2023-04-15T21:40:28.337Z,63.70
2023-04-15T21:42:29.958Z,63.32
2023-04-15T21:44:31.576Z,63.39
2023-04-15T21:46:35.227Z,63.34
2023-04-15T21:48:37.413Z,63.71
2023-04-15T21:50:40.406Z,63.06
2023-04-15T21:52:41.964Z,63.13
2023-04-15T21:54:43.523Z,63.20
2023-04-15T21:56:45.095Z,62.68
2023-04-15T21:58:46.708Z,63.25
2023-04-15T22:00:48.349Z,62.57
2023-04-15T22:02:50.182Z,62.92
2023-04-15T22:04:51.864Z,62.61
2023-04-15T22:06:54.815Z,62.33
2023-04-15T22:08:57.820Z,62.66
2023-04-15T22:10:59.625Z,62.40
2023-04-15T22:13:01.189Z,62.54
2023-04-15T22:15:02.843Z,62.44
2023-04-15T22:17:04.506Z,62.97
2023-04-15T22:19:06.208Z,63.05
2023-04-15T22:21:07.921Z,62.88
2023-04-15T22:23:10.945Z,62.80
2023-04-15T22:25:12.717Z,62.93
2023-04-15T22:27:14.332Z,62.80
2023-04-15T22:29:15.943Z,62.48
2023-04-15T22:31:17.538Z,62.40
2023-04-15T22:33:19.189Z,62.48
2023-04-15T22:35:20.829Z,62.46
2023-04-15T22:37:22.535Z,62.10
2023-04-15T22:39:25.498Z,62.65
2023-04-15T22:41:27.073Z,62.59
2023-04-15T22:43:28.640Z,62.50
2023-04-15T22:45:30.197Z,62.81
2023-04-15T22:47:32.280Z,62.64
2023-04-15T22:49:33.860Z,62.88
2023-04-15T22:51:35.649Z,63.35
2023-04-15T22:53:37.210Z,63.62
2023-04-15T22:55:40.101Z,63.26
2023-04-15T22:57:41.682Z,63.31
2023-04-15T22:59:43.277Z,63.01
2023-04-15T23:01:44.914Z,62.83
2023-04-15T23:03:57.396Z,63.06
2023-04-15T23:06:06.856Z,63.00
2023-04-15T23:08:08.490Z,63.19
2023-04-15T23:10:10.362Z,63.21
2023-04-15T23:12:13.533Z,62.98
2023-04-15T23:14:15.153Z,63.18
2023-04-15T23:16:16.739Z,63.14
2023-04-15T23:18:18.320Z,62.88
2023-04-15T23:20:19.885Z,62.67
2023-04-15T23:22:21.466Z,62.85
2023-04-15T23:24:23.025Z,63.15
2023-04-15T23:26:24.638Z,62.52
2023-04-15T23:28:27.562Z,62.30
2023-04-15T23:30:30.533Z,62.49
2023-04-15T23:32:32.068Z,63.17
2023-04-15T23:34:33.714Z,62.28
2023-04-15T23:36:35.246Z,62.72
2023-04-15T23:38:36.822Z,62.59
2023-04-15T23:40:38.445Z,62.88
2023-04-15T23:42:40.099Z,62.98
2023-04-15T23:44:43.052Z,62.63
2023-04-15T23:46:44.709Z,62.83
2023-04-15T23:48:46.354Z,62.51
2023-04-15T23:50:47.913Z,63.31
2023-04-15T23:52:49.497Z,62.96
2023-04-15T23:54:51.088Z,62.66
2023-04-15T23:56:52.637Z,62.84
2023-04-15T23:58:54.186Z,62.61
